Terminal Aerodrome Forecast
Issued by NWS

Home | Current Version | Previous Version | Text Only | Print | Product List | Glossary On
Versions: 1 2 3 4 5 6 7 8 9 10 11 12 13 14 15 16 17 18
140
FTUS43 KGRR 121525 AAA
TAFBTL
TAF AMD
KBTL 121525Z 1215/1312 28012G20KT 1 1/2SM -SN OVC025
      TEMPO 1215/1218 3/4SM -SN OVC015
     FM121800 29015G25KT 5SM -SN BLSN OVC030
     FM122200 31015G25KT 5SM -SN BLSN OVC035
     FM130500 32010KT 6SM -SN OVC035=

USA.gov is the U.S. government's official web portal to all federal, state and local government web resources and services.